Time;durP1;ratioP1;P1;durP2;ratioP2;P2;SDS_P1;SDS_P2;PMS_P1;PMS_P2;Temp;Humidity;BMP_temperature;BMP_pressure;BME280_temperature;BME280_humidity;BME280_pressure;Samples;Min_cycle;Max_cycle;Signal;HPM_P1;HPM_P2
2021/08/27 00:07:30;;;;;;;12.38;6.05;;;25.40;44.70;;;;;;21203444;27;80906;-71
2021/08/27 00:17:32;;;;;;;13.85;6.03;;;25.40;44.90;;;;;;21221887;27;79953;-72
2021/08/27 00:27:33;;;;;;;14.70;7.43;;;25.40;44.70;;;;;;21211514;27;81913;-73
2021/08/27 00:37:35;;;;;;;16.40;6.95;;;25.30;45.20;;;;;;21218251;27;81157;-74
2021/08/27 00:47:38;;;;;;;15.05;6.43;;;25.20;45.20;;;;;;21216477;27;81135;-70
2021/08/27 00:57:40;;;;;;;15.13;6.28;;;25.00;45.90;;;;;;21235106;27;80685;-75
2021/08/27 01:07:53;;;;;;;11.43;5.90;;;24.90;46.00;;;;;;21215697;27;81086;-72
2021/08/27 01:18:10;;;;;;;16.35;6.32;;;24.80;46.30;;;;;;21215392;27;81855;-72
2021/08/27 01:28:15;;;;;;;17.80;6.80;;;24.70;46.50;;;;;;21233992;27;80051;-73
2021/08/27 01:38:24;;;;;;;15.07;6.55;;;24.70;46.60;;;;;;21212289;27;81498;-73
2021/08/27 01:48:37;;;;;;;21.13;6.90;;;24.50;49.30;;;;;;21231915;27;81103;-72
2021/08/27 01:58:42;;;;;;;12.35;7.13;;;24.50;48.20;;;;;;21230806;27;80720;-74
2021/08/27 02:08:45;;;;;;;16.15;7.75;;;24.40;50.00;;;;;;21210805;27;80833;-73
2021/08/27 02:18:46;;;;;;;12.85;6.38;;;24.30;49.00;;;;;;21209291;27;80616;-74
2021/08/27 02:28:49;;;;;;;12.43;6.88;;;24.20;50.60;;;;;;21210201;27;80105;-72
2021/08/27 02:38:54;;;;;;;10.85;5.50;;;24.10;50.60;;;;;;21208974;27;80788;-74
2021/08/27 02:48:56;;;;;;;12.48;6.95;;;24.00;50.30;;;;;;21208572;27;81097;-73
2021/08/27 02:58:58;;;;;;;14.48;5.75;;;23.90;50.20;;;;;;21207756;27;80131;-73
2021/08/27 03:09:08;;;;;;;11.52;5.45;;;23.90;50.30;;;;;;21224743;27;80533;-72
2021/08/27 03:19:27;;;;;;;12.27;5.80;;;23.90;51.20;;;;;;21207350;27;82207;-73
2021/08/27 03:29:37;;;;;;;16.77;5.78;;;23.90;50.50;;;;;;21224383;27;81140;-72
2021/08/27 03:39:42;;;;;;;16.48;6.25;;;23.90;50.30;;;;;;21206244;27;81757;-71
2021/08/27 03:49:51;;;;;;;15.65;7.45;;;23.70;53.20;;;;;;21208138;27;80772;-71
2021/08/27 03:59:56;;;;;;;17.67;7.40;;;23.60;52.90;;;;;;21227936;27;80981;-72
2021/08/27 04:09:59;;;;;;;13.10;6.80;;;23.50;51.90;;;;;;21238795;27;80261;-72
2021/08/27 04:20:06;;;;;;;12.35;5.68;;;23.40;52.00;;;;;;21220412;27;80723;-72
2021/08/27 04:30:10;;;;;;;10.45;6.50;;;23.40;50.60;;;;;;21219160;27;80134;-72
2021/08/27 04:40:14;;;;;;;17.08;6.47;;;23.20;50.30;;;;;;21219666;27;80866;-72
2021/08/27 04:50:26;;;;;;;15.27;7.50;;;23.10;49.90;;;;;;21219939;27;80811;-71
2021/08/27 05:00:29;;;;;;;12.75;6.00;;;23.10;50.10;;;;;;21217193;27;81872;-71
2021/08/27 05:10:32;;;;;;;15.13;6.22;;;23.10;51.00;;;;;;21216123;27;80399;-72
2021/08/27 05:20:37;;;;;;;15.27;7.00;;;22.90;50.60;;;;;;21235858;27;80517;-73
2021/08/27 05:30:38;;;;;;;;;;;22.80;51.90;;;;;;21214799;27;82085;-71
2021/08/27 05:40:46;;;;;;;14.70;6.40;;;22.60;52.10;;;;;;21219223;27;80816;-72
2021/08/27 05:50:49;;;;;;;13.18;6.57;;;22.60;51.70;;;;;;21201197;27;81296;-72
2021/08/27 06:00:51;;;;;;;16.98;6.20;;;22.50;51.30;;;;;;21199005;27;80778;-73
2021/08/27 06:10:54;;;;;;;12.35;6.32;;;22.40;51.00;;;;;;21198682;27;81987;-72
2021/08/27 06:20:57;;;;;;;11.85;6.90;;;22.50;51.30;;;;;;21192829;27;81921;-70
2021/08/27 06:31:01;;;;;;;12.73;6.45;;;22.50;52.30;;;;;;21201730;27;81881;-70
2021/08/27 06:41:06;;;;;;;20.00;6.80;;;22.50;51.90;;;;;;21213816;27;80617;-67
2021/08/27 06:51:10;;;;;;;14.90;7.20;;;22.70;51.60;;;;;;21195434;27;81665;-68
2021/08/27 07:01:14;;;;;;;14.50;6.63;;;23.00;50.90;;;;;;21197989;27;81658;-64
2021/08/27 07:11:16;;;;;;;15.07;7.30;;;23.30;50.30;;;;;;21196880;27;81063;-65
2021/08/27 07:21:19;;;;;;;18.98;7.35;;;23.50;51.10;;;;;;21197549;27;81137;-65
2021/08/27 07:31:22;;;;;;;15.05;6.25;;;23.90;50.00;;;;;;21195881;27;81690;-67
2021/08/27 07:41:25;;;;;;;29.50;7.70;;;24.20;47.90;;;;;;21191249;27;80849;-66
2021/08/27 07:51:28;;;;;;;16.88;5.88;;;24.60;47.40;;;;;;21191112;27;83933;-66
2021/08/27 08:01:31;;;;;;;14.57;5.85;;;25.10;45.20;;;;;;21191572;27;81641;-66
2021/08/27 08:11:35;;;;;;;17.00;7.35;;;25.50;44.30;;;;;;21193692;27;80733;-63
2021/08/27 08:21:38;;;;;;;10.75;6.03;;;25.90;43.40;;;;;;21192440;27;81359;-66
2021/08/27 08:31:41;;;;;;;15.05;6.07;;;26.30;43.10;;;;;;21192563;27;81209;-65
2021/08/27 08:41:48;;;;;;;26.42;5.85;;;26.60;42.50;;;;;;21212145;27;81757;-61
2021/08/27 08:51:51;;;;;;;14.55;4.93;;;27.00;42.00;;;;;;21221158;27;81429;-66
2021/08/27 09:01:54;;;;;;;21.35;5.68;;;27.40;41.00;;;;;;21200441;27;81320;-64
2021/08/27 09:12:00;;;;;;;14.93;5.45;;;27.60;41.20;;;;;;21203831;27;80928;-62
2021/08/27 09:22:04;;;;;;;16.98;5.30;;;27.90;40.30;;;;;;21202357;27;81529;-66
2021/08/27 09:32:29;;;;;;;25.38;5.85;;;28.20;40.50;;;;;;21202801;27;81891;-63
2021/08/27 09:42:43;;;;;;;15.88;5.95;;;28.80;38.60;;;;;;21198219;27;81382;-66
2021/08/27 09:52:53;;;;;;;21.77;6.22;;;29.60;37.30;;;;;;21218671;27;80771;-65
2021/08/27 10:02:56;;;;;;;17.30;6.38;;;30.40;36.50;;;;;;21197380;27;81840;-71
2021/08/27 10:13:03;;;;;;;13.63;5.72;;;31.40;35.40;;;;;;21217998;27;81292;-65
2021/08/27 10:23:10;;;;;;;17.40;6.50;;;32.60;32.90;;;;;;21197819;27;82118;-64
2021/08/27 10:33:12;;;;;;;17.85;6.25;;;34.00;30.40;;;;;;21204980;27;81853;-66
2021/08/27 10:43:14;;;;;;;16.13;5.45;;;35.80;28.80;;;;;;21193535;27;82837;-63
2021/08/27 10:53:29;;;;;;;14.88;5.63;;;37.90;26.30;;;;;;21196814;27;81136;-65
2021/08/27 11:04:10;;;;;;;17.23;5.93;;;39.90;23.60;;;;;;21195821;27;81630;-64
2021/08/27 11:14:17;;;;;;;16.98;6.10;;;42.00;22.00;;;;;;21156650;27;81049;-63
2021/08/27 11:24:22;;;;;;;19.88;4.93;;;45.80;18.40;;;;;;21211156;27;81933;-64
2021/08/27 11:35:04;;;;;;;12.02;4.53;;;48.20;16.30;;;;;;21194938;27;81231;-70
2021/08/27 11:45:14;;;;;;;14.55;5.82;;;48.60;15.30;;;;;;21196174;27;81519;-65
2021/08/27 11:55:17;;;;;;;16.80;7.00;;;51.00;14.20;;;;;;21212090;27;80711;-64
2021/08/27 12:05:22;;;;;;;18.88;4.60;;;50.90;13.90;;;;;;21194887;27;81125;-65
2021/08/27 12:15:27;;;;;;;8.40;4.15;;;51.80;13.30;;;;;;21212579;27;81824;-66
2021/08/27 12:25:32;;;;;;;9.48;3.70;;;51.90;13.50;;;;;;21198114;27;81752;-63
2021/08/27 12:35:35;;;;;;;7.50;3.10;;;49.50;13.80;;;;;;21208315;27;81768;-64
2021/08/27 12:45:50;;;;;;;8.65;4.53;;;45.60;14.80;;;;;;21202183;27;82034;-68
2021/08/27 12:56:07;;;;;;;6.63;3.63;;;51.50;13.30;;;;;;21218742;27;80756;-63
2021/08/27 13:06:28;;;;;;;9.57;3.80;;;53.90;12.00;;;;;;21172333;27;80960;-61
2021/08/27 13:16:30;;;;;;;13.15;4.30;;;52.20;12.30;;;;;;21149543;27;81034;-69
2021/08/27 13:26:34;;;;;;;15.30;4.95;;;48.90;13.40;;;;;;21128794;27;80679;-71
2021/08/27 13:36:35;;;;;;;6.70;3.78;;;44.80;15.50;;;;;;21128691;27;80209;-69
2021/08/27 13:46:37;;;;;;;5.75;3.75;;;47.40;14.10;;;;;;21129663;27;81046;-70
2021/08/27 13:56:39;;;;;;;7.43;4.07;;;47.50;14.10;;;;;;21129560;27;79893;-70
2021/08/27 14:06:40;;;;;;;7.10;3.95;;;49.80;13.30;;;;;;21147240;27;80521;-70
2021/08/27 14:16:44;;;;;;;9.00;4.28;;;46.40;14.60;;;;;;21127777;27;80749;-70
2021/08/27 14:26:46;;;;;;;9.60;4.63;;;45.40;14.50;;;;;;21127113;27;80716;-69
2021/08/27 14:36:49;;;;;;;9.43;4.40;;;50.80;12.40;;;;;;21126945;27;81789;-69
2021/08/27 14:46:50;;;;;;;8.48;4.22;;;54.00;11.50;;;;;;21124286;27;80086;-71
2021/08/27 14:56:52;;;;;;;7.25;4.22;;;51.30;12.20;;;;;;21143058;27;80855;-72
2021/08/27 15:06:53;;;;;;;6.82;5.95;;;53.20;11.80;;;;;;21142092;27;82020;-71
2021/08/27 15:16:55;;;;;;;10.15;4.70;;;55.20;10.80;;;;;;21123602;27;80082;-71
2021/08/27 15:26:56;;;;;;;9.77;5.15;;;51.10;11.80;;;;;;21184830;27;80545;-69
2021/08/27 15:36:58;;;;;;;7.40;3.95;;;45.90;13.90;;;;;;21205459;27;80807;-70
2021/08/27 15:47:00;;;;;;;10.55;4.80;;;42.90;14.40;;;;;;21224016;27;81542;-70
2021/08/27 15:57:01;;;;;;;7.57;4.45;;;45.50;14.10;;;;;;21229553;27;80504;-70
2021/08/27 16:07:03;;;;;;;13.25;4.72;;;49.90;12.40;;;;;;21221555;27;81022;-71
2021/08/27 16:17:04;;;;;;;4.65;3.70;;;44.00;14.40;;;;;;21219484;27;81948;-71
2021/08/27 16:27:06;;;;;;;7.57;2.92;;;44.50;13.00;;;;;;21221257;27;80727;-70
2021/08/27 16:37:08;;;;;;;6.25;2.58;;;41.90;13.20;;;;;;21236537;27;79974;-70
2021/08/27 16:47:09;;;;;;;6.80;3.20;;;42.00;12.80;;;;;;21217169;27;80699;-70
2021/08/27 16:57:11;;;;;;;7.32;2.40;;;39.50;13.90;;;;;;21235295;27;80616;-70
2021/08/27 17:07:12;;;;;;;7.60;2.95;;;39.90;13.50;;;;;;21233310;27;80755;-69
2021/08/27 17:17:14;;;;;;;10.40;3.00;;;37.70;14.60;;;;;;21233417;27;80271;-71
2021/08/27 17:27:15;;;;;;;8.48;3.17;;;36.90;15.40;;;;;;21213740;27;81071;-70
2021/08/27 17:37:18;;;;;;;9.15;3.53;;;36.50;15.90;;;;;;21215551;27;80715;-69
2021/08/27 17:47:19;;;;;;;9.35;3.75;;;36.30;16.10;;;;;;21214580;27;80443;-70
2021/08/27 17:57:21;;;;;;;10.15;2.75;;;36.40;15.90;;;;;;21232797;27;81414;-70
2021/08/27 18:07:23;;;;;;;7.82;2.80;;;35.40;16.40;;;;;;21213388;27;81880;-70
2021/08/27 18:17:24;;;;;;;9.25;3.50;;;34.70;17.00;;;;;;21228632;27;80758;-70
2021/08/27 18:27:26;;;;;;;6.93;2.95;;;34.30;17.30;;;;;;21232486;27;80497;-71
2021/08/27 18:37:27;;;;;;;7.47;3.33;;;33.90;17.80;;;;;;21228818;27;84269;-70
2021/08/27 18:47:29;;;;;;;11.02;4.10;;;33.50;18.30;;;;;;21211668;27;80975;-71
2021/08/27 18:57:32;;;;;;;9.90;3.55;;;33.20;19.20;;;;;;21211472;27;80736;-71
2021/08/27 19:07:33;;;;;;;9.82;3.08;;;32.70;19.60;;;;;;21209989;27;80762;-71
2021/08/27 19:17:36;;;;;;;9.20;4.05;;;32.40;19.80;;;;;;21209182;27;80774;-71
2021/08/27 19:27:37;;;;;;;10.40;4.32;;;32.10;20.00;;;;;;21207579;27;79976;-71
2021/08/27 19:37:39;;;;;;;10.60;4.07;;;31.80;21.00;;;;;;21220430;27;81179;-70
2021/08/27 19:47:41;;;;;;;9.50;4.15;;;31.50;21.30;;;;;;21203637;27;81027;-70
2021/08/27 19:57:43;;;;;;;10.48;4.15;;;31.50;21.80;;;;;;21207155;27;81949;-71
2021/08/27 20:07:45;;;;;;;23.88;4.55;;;31.40;22.40;;;;;;21146328;27;80581;-71
2021/08/27 20:17:47;;;;;;;14.38;5.07;;;31.20;22.80;;;;;;21119335;27;80573;-71
2021/08/27 20:27:49;;;;;;;11.00;4.28;;;31.10;23.20;;;;;;21120146;27;81067;-71
2021/08/27 20:37:51;;;;;;;10.85;4.70;;;30.90;23.70;;;;;;21117843;27;80718;-71
2021/08/27 20:47:53;;;;;;;11.00;4.68;;;30.70;24.20;;;;;;21129674;27;80120;-71
2021/08/27 20:57:55;;;;;;;11.65;5.03;;;30.40;25.20;;;;;;21132651;27;80732;-71
2021/08/27 21:07:58;;;;;;;18.42;5.15;;;30.20;25.80;;;;;;21211836;27;81029;-72
2021/08/27 21:18:00;;;;;;;11.32;4.78;;;29.80;27.00;;;;;;21216454;27;80611;-72
2021/08/27 21:28:03;;;;;;;8.02;5.22;;;29.50;27.90;;;;;;21234533;27;80561;-71
2021/08/27 21:38:07;;;;;;;14.38;5.68;;;29.30;28.00;;;;;;21215847;27;80971;-70
2021/08/27 21:48:08;;;;;;;9.75;5.18;;;29.10;28.50;;;;;;21214453;27;81491;-71
2021/08/27 21:58:11;;;;;;;10.55;4.72;;;28.90;29.10;;;;;;21232255;27;82320;-71
2021/08/27 22:08:13;;;;;;;15.75;5.40;;;28.70;29.70;;;;;;21230100;27;81020;-71
2021/08/27 22:18:16;;;;;;;11.02;4.10;;;28.60;29.10;;;;;;21210992;27;80642;-70
2021/08/27 22:28:18;;;;;;;8.68;4.70;;;28.70;28.80;;;;;;21229296;27;79981;-69
2021/08/27 22:38:20;;;;;;;8.15;3.95;;;28.60;29.20;;;;;;21209335;27;80825;-71
2021/08/27 22:48:22;;;;;;;13.00;5.13;;;28.50;30.10;;;;;;21208430;27;80647;-70
2021/08/27 22:58:24;;;;;;;14.23;5.38;;;28.40;30.40;;;;;;21208051;27;81094;-72
2021/08/27 23:08:26;;;;;;;13.57;4.82;;;28.30;31.00;;;;;;21206612;27;80571;-70
2021/08/27 23:18:28;;;;;;;8.70;4.22;;;28.20;31.30;;;;;;21207446;27;80779;-71
2021/08/27 23:28:32;;;;;;;17.92;4.72;;;28.20;31.60;;;;;;21208778;27;80005;-71
2021/08/27 23:38:33;;;;;;;13.75;6.15;;;28.10;31.80;;;;;;21206228;27;80055;-70
2021/08/27 23:48:35;;;;;;;10.27;4.40;;;27.90;32.30;;;;;;21201000;27;80625;-71
2021/08/27 23:58:36;;;;;;;12.60;4.80;;;27.80;32.60;;;;;;21204048;27;80761;-71
